Time;durP1;ratioP1;P1;durP2;ratioP2;P2;SDS_P1;SDS_P2;PMS_P1;PMS_P2;Temp;Humidity;BMP_temperature;BMP_pressure;BME280_temperature;BME280_humidity;BME280_pressure;Samples;Min_cycle;Max_cycle;Signal;HPM_P1;HPM_P2
2022/12/08 00:00:28;;;;;;;8.90;6.70;;;;;;;0.57;79.64;99547.19;103747;1303;25522;-81
2022/12/08 00:02:54;;;;;;;9.30;6.70;;;;;;;0.58;79.33;99548.58;103787;1303;22467;-82
2022/12/08 00:10:53;;;;;;;11.30;6.40;;;;;;;0.57;78.95;99560.17;103847;1303;22473;-77
2022/12/08 00:13:19;;;;;;;9.50;5.50;;;;;;;0.55;79.04;99567.92;103733;1289;24770;-77
2022/12/08 00:15:45;;;;;;;11.00;6.30;;;;;;;0.59;79.13;99559.52;103643;1303;22577;-77
2022/12/08 00:18:11;;;;;;;8.80;6.20;;;;;;;0.57;78.81;99568.30;103657;1303;24042;-78
2022/12/08 00:20:38;;;;;;;9.00;6.00;;;;;;;0.54;78.82;99567.73;103671;1302;22604;-75
2022/12/08 00:23:04;;;;;;;8.10;5.20;;;;;;;0.52;78.82;99573.23;103652;1303;22483;-75
2022/12/08 00:25:50;;;;;;;7.80;5.40;;;;;;;0.53;78.92;99576.55;103597;1303;22472;-76
2022/12/08 00:28:16;;;;;;;7.10;4.20;;;;;;;0.57;78.73;99578.54;103551;1303;22476;-76
2022/12/08 00:30:42;;;;;;;5.90;4.20;;;;;;;0.60;78.37;99585.35;103521;1303;23233;-75
2022/12/08 00:33:09;;;;;;;5.00;3.90;;;;;;;0.60;78.05;99585.52;103584;1303;25517;-76
2022/12/08 00:35:36;;;;;;;8.60;4.30;;;;;;;0.57;77.80;99589.80;103677;1295;22885;-76
2022/12/08 00:38:08;;;;;;;7.60;4.40;;;;;;;0.58;77.47;99594.84;103467;1303;22470;-78
2022/12/08 00:40:36;;;;;;;5.00;2.70;;;;;;;0.57;77.22;99600.19;103606;1296;22511;-74
2022/12/08 00:43:40;;;;;;;7.60;3.20;;;;;;;0.55;76.66;99596.17;103216;1307;24459;-73
2022/12/08 00:46:07;;;;;;;7.90;2.80;;;;;;;0.51;76.66;99604.06;103374;1307;22601;-74
2022/12/08 00:48:34;;;;;;;5.00;2.80;;;;;;;0.51;76.84;99608.23;103180;1307;22466;-74
2022/12/08 00:55:00;;;;;;;3.80;2.50;;;;;;;0.45;76.63;99620.24;103452;1307;23783;-76
2022/12/08 00:57:51;;;;;;;3.00;2.60;;;;;;;0.45;77.19;99619.58;103183;1312;22489;-74
2022/12/08 01:00:17;;;;;;;3.70;2.10;;;;;;;0.47;76.81;99621.85;102621;1313;25585;-75
2022/12/08 01:02:43;;;;;;;5.20;2.50;;;;;;;0.44;76.82;99622.66;102348;1307;22632;-78
2022/12/08 01:05:10;;;;;;;4.50;2.20;;;;;;;0.44;76.96;99626.12;102542;1318;22719;-77
2022/12/08 01:07:36;;;;;;;6.90;2.10;;;;;;;0.45;77.04;99618.70;102567;1318;22707;-75
2022/12/08 01:10:03;;;;;;;4.60;2.40;;;;;;;0.47;77.06;99620.48;102505;1318;25407;-78
2022/12/08 01:12:30;;;;;;;5.20;2.50;;;;;;;0.48;76.96;99625.67;102496;1318;22516;-80
2022/12/08 01:14:57;;;;;;;4.70;2.40;;;;;;;0.45;77.11;99631.35;102500;1309;25530;-79
2022/12/08 01:17:27;;;;;;;6.20;2.40;;;;;;;0.48;77.08;99632.60;102869;1317;22477;-75
2022/12/08 01:19:53;;;;;;;4.50;2.30;;;;;;;0.44;76.97;99630.11;103180;1310;24262;-76
2022/12/08 01:22:19;;;;;;;5.40;2.50;;;;;;;0.41;76.92;99631.06;103803;1303;22722;-73
2022/12/08 01:24:46;;;;;;;4.50;2.80;;;;;;;0.38;76.93;99636.38;103895;1303;25429;-76
2022/12/08 01:27:14;;;;;;;4.50;2.50;;;;;;;0.39;77.20;99632.24;103487;1302;22472;-76
2022/12/08 01:29:41;;;;;;;4.50;2.40;;;;;;;0.40;77.18;99636.77;103697;1303;24425;-76
2022/12/08 01:32:08;;;;;;;4.90;2.80;;;;;;;0.38;76.86;99636.39;103466;1303;25992;-78
2022/12/08 01:34:34;;;;;;;4.40;2.40;;;;;;;0.38;77.01;99631.36;103579;1303;24250;-79
2022/12/08 01:37:01;;;;;;;4.60;2.80;;;;;;;0.42;77.01;99631.44;103808;1303;22455;-79
2022/12/08 01:39:28;;;;;;;5.00;2.30;;;;;;;0.45;76.77;99632.20;103750;1303;22591;-79
2022/12/08 01:41:55;;;;;;;6.60;2.80;;;;;;;0.42;76.56;99629.52;103668;1303;24315;-83
2022/12/08 01:44:21;;;;;;;4.20;2.40;;;;;;;0.40;76.69;99632.27;103569;1303;24224;-80
2022/12/08 01:46:48;;;;;;;6.60;2.40;;;;;;;0.42;76.62;99629.52;103752;1303;22454;-80
2022/12/08 01:49:22;;;;;;;2.80;1.80;;;;;;;0.39;76.59;99633.29;103658;1303;23935;-82
2022/12/08 01:51:56;;;;;;;5.10;2.40;;;;;;;0.34;76.29;99638.02;103784;1282;22472;-80
2022/12/08 01:54:27;;;;;;;3.80;2.40;;;;;;;0.30;76.46;99636.73;103876;1303;24288;-80
2022/12/08 01:57:02;;;;;;;4.10;2.40;;;;;;;0.28;76.54;99640.02;103479;1303;22475;-77
2022/12/08 01:59:31;;;;;;;3.20;2.10;;;;;;;0.24;76.51;99644.77;103790;1296;22469;-78
2022/12/08 02:01:58;;;;;;;8.20;2.60;;;;;;;0.25;76.84;99650.16;103721;1303;25376;-76
2022/12/08 02:04:24;;;;;;;5.30;2.60;;;;;;;0.28;76.55;99646.59;103648;1303;26553;-78
2022/12/08 02:06:52;;;;;;;5.30;2.80;;;;;;;0.27;76.46;99643.27;103678;1303;22545;-74
2022/12/08 02:09:20;;;;;;;4.80;2.20;;;;;;;0.27;76.52;99643.79;103576;1302;22477;-76
2022/12/08 02:11:48;;;;;;;3.40;2.20;;;;;;;0.27;76.40;99643.80;103762;1302;24019;-78
2022/12/08 02:14:14;;;;;;;4.10;2.80;;;;;;;0.29;76.47;99641.57;103708;1303;25657;-77
2022/12/08 02:17:02;;;;;;;4.20;2.20;;;;;;;0.25;76.16;99636.13;103787;1302;22472;-79
2022/12/08 02:19:50;;;;;;;5.90;2.50;;;;;;;0.22;76.30;99637.11;103697;1303;25374;-77
2022/12/08 02:22:31;;;;;;;4.00;2.60;;;;;;;0.26;76.64;99638.92;103804;1293;24319;-79
2022/12/08 02:25:10;;;;;;;5.70;2.50;;;;;;;0.26;76.20;99640.99;103674;1303;22982;-79
2022/12/08 02:27:53;;;;;;;3.40;2.50;;;;;;;0.20;76.07;99645.38;103741;1303;22475;-76
2022/12/08 02:30:34;;;;;;;5.00;2.70;;;;;;;0.16;76.10;99648.57;103816;1303;23890;-76
2022/12/08 02:33:21;;;;;;;5.00;2.50;;;;;;;0.16;76.33;99643.39;104913;1303;23207;-86
2022/12/08 02:36:01;;;;;;;7.10;2.50;;;;;;;0.16;76.28;99636.63;105097;1292;25260;-81
2022/12/08 02:38:46;;;;;;;5.70;3.00;;;;;;;0.17;76.20;99634.75;104007;1303;22862;-79
2022/12/08 02:41:36;;;;;;;4.20;2.70;;;;;;;0.17;76.22;99637.87;104000;1302;22504;-80
2022/12/08 02:44:21;;;;;;;6.40;2.90;;;;;;;0.16;76.11;99643.22;104533;1279;22522;-80
2022/12/08 02:46:54;;;;;;;4.40;2.90;;;;;;;0.21;76.36;99642.30;104477;1303;22775;-80
2022/12/08 02:49:20;;;;;;;5.40;3.10;;;;;;;0.27;76.14;99644.29;104307;1303;181794;-82
2022/12/08 02:51:46;;;;;;;6.30;3.30;;;;;;;0.25;75.89;99646.16;104335;1309;25282;-83
2022/12/08 02:54:14;;;;;;;4.30;2.70;;;;;;;0.22;75.94;99652.70;104100;1309;22553;-79
2022/12/08 02:57:06;;;;;;;7.60;3.40;;;;;;;0.20;75.85;99652.83;103990;1310;24382;-83
2022/12/08 02:59:32;;;;;;;6.60;2.90;;;;;;;0.19;75.96;99655.92;103298;1302;22477;-78
2022/12/08 03:02:22;;;;;;;6.00;2.90;;;;;;;0.17;75.91;99664.02;103369;1309;22632;-81
2022/12/08 03:05:17;;;;;;;6.20;3.00;;;;;;;0.15;76.04;99667.08;103191;1300;22482;-75
2022/12/08 03:08:01;;;;;;;4.50;2.90;;;;;;;0.19;76.42;99670.46;103295;1307;22955;-84
2022/12/08 03:10:40;;;;;;;4.50;2.90;;;;;;;0.19;76.06;99667.34;103422;1303;22728;-78
2022/12/08 03:13:16;;;;;;;7.40;3.30;;;;;;;0.14;75.92;99669.84;103858;1303;22470;-80
2022/12/08 03:15:47;;;;;;;4.60;3.40;;;;;;;0.09;76.09;99669.20;103912;1299;24293;-82
2022/12/08 03:18:17;;;;;;;5.70;3.10;;;;;;;0.09;76.25;99684.63;103807;1303;22476;-78
2022/12/08 03:20:46;;;;;;;6.60;3.30;;;;;;;0.05;76.23;99681.42;103671;1303;25216;-82
2022/12/08 03:23:14;;;;;;;5.40;3.40;;;;;;;0.04;76.52;99676.71;103660;1303;22486;-75
2022/12/08 03:25:50;;;;;;;4.20;3.00;;;;;;;0.05;76.53;99675.37;103504;1303;22476;-75
2022/12/08 03:28:17;;;;;;;7.40;4.00;;;;;;;0.04;76.45;99684.86;103351;1303;22526;-78
2022/12/08 03:30:48;;;;;;;6.50;3.30;;;;;;;0.07;76.58;99689.09;103683;1303;22480;-79
2022/12/08 03:33:23;;;;;;;5.10;3.30;;;;;;;0.07;76.49;99689.79;103918;1303;24359;-79
2022/12/08 03:35:50;;;;;;;4.00;3.10;;;;;;;0.03;76.38;99692.98;103708;1303;22471;-77
2022/12/08 03:38:17;;;;;;;7.80;3.90;;;;;;;0.01;76.52;99690.52;103442;1298;22468;-79
2022/12/08 03:41:17;;;;;;;4.50;3.50;;;;;;;0.02;76.64;99697.96;103830;1303;22731;-80
2022/12/08 03:43:29;;;;;;;5.90;3.50;;;;;;;0.04;76.55;99698.54;104067;1300;22481;-82
2022/12/08 03:45:55;;;;;;;5.20;3.60;;;;;;;0.02;76.63;99698.67;104216;1303;22497;-81
2022/12/08 03:48:22;;;;;;;6.80;4.00;;;;;;;0.06;76.87;99697.20;103836;1303;22477;-79
2022/12/08 03:50:48;;;;;;;8.70;3.70;;;;;;;0.07;76.75;99698.59;103751;1290;22470;-76
2022/12/08 03:53:15;;;;;;;6.40;3.80;;;;;;;0.06;76.70;99698.24;103733;1303;23237;-78
2022/12/08 03:55:42;;;;;;;7.60;4.20;;;;;;;0.02;76.53;99699.70;103583;1303;24251;-75
2022/12/08 03:58:08;;;;;;;7.80;4.50;;;;;;;0.02;76.64;99697.44;103925;1303;24384;-75
2022/12/08 04:00:34;;;;;;;5.00;3.40;;;;;;;0.06;76.87;99702.39;103466;1303;22466;-78
2022/12/08 04:03:00;;;;;;;4.20;3.00;;;;;;;0.07;76.64;99699.65;103853;1301;22418;-77
2022/12/08 04:05:26;;;;;;;7.90;4.20;;;;;;;0.04;76.57;99703.40;103884;1301;24818;-78
2022/12/08 04:07:56;;;;;;;7.00;5.00;;;;;;;0.03;76.70;99712.20;103715;1301;24125;-75
2022/12/08 04:10:23;;;;;;;8.90;4.50;;;;;;;0.04;76.68;99708.08;103779;1304;22467;-82
2022/12/08 04:12:49;;;;;;;8.30;4.50;;;;;;;0.08;76.74;99715.27;103951;1303;22523;-83
2022/12/08 04:15:16;;;;;;;5.70;4.20;;;;;;;0.07;76.57;99714.36;103705;1303;22472;-74
2022/12/08 04:17:42;;;;;;;6.70;4.70;;;;;;;0.05;76.49;99711.19;103636;1297;23064;-74
2022/12/08 04:20:09;;;;;;;7.40;5.50;;;;;;;0.00;76.53;99717.84;103568;1303;25361;-79
2022/12/08 04:22:35;;;;;;;7.40;4.80;;;;;;;0.01;76.60;99718.89;103643;1303;24250;-78
2022/12/08 04:25:02;;;;;;;9.50;5.00;;;;;;;-0.02;76.53;99717.10;103476;1290;22473;-78
2022/12/08 04:27:28;;;;;;;6.20;4.90;;;;;;;0.02;76.68;99718.39;103656;1302;22724;-78
2022/12/08 04:29:54;;;;;;;7.40;5.10;;;;;;;0.09;76.73;99720.80;103733;1303;24365;-74
2022/12/08 04:32:20;;;;;;;8.20;5.60;;;;;;;0.10;76.51;99719.95;103567;1303;22462;-75
2022/12/08 04:34:46;;;;;;;11.20;5.00;;;;;;;0.09;76.25;99715.27;103652;1303;22729;-80
2022/12/08 04:37:12;;;;;;;7.90;5.10;;;;;;;0.07;76.33;99724.04;103751;1302;22647;-77
2022/12/08 04:39:38;;;;;;;8.70;4.70;;;;;;;0.07;76.50;99728.23;103885;1303;23002;-77
2022/12/08 04:42:04;;;;;;;7.00;4.70;;;;;;;0.12;76.49;99733.69;103481;1303;24248;-75
2022/12/08 04:44:31;;;;;;;8.00;5.00;;;;;;;0.13;76.34;99732.85;103649;1303;22462;-82
2022/12/08 04:46:57;;;;;;;9.60;6.20;;;;;;;0.12;76.29;99734.03;103694;1303;22475;-77
2022/12/08 04:49:23;;;;;;;8.10;5.70;;;;;;;0.08;76.32;99732.05;103843;1303;22469;-77
2022/12/08 04:51:49;;;;;;;8.80;6.00;;;;;;;0.07;76.44;99735.66;103695;1306;22551;-76
2022/12/08 04:54:16;;;;;;;10.20;5.80;;;;;;;0.07;76.52;99738.09;104045;1301;24233;-75
2022/12/08 04:56:42;;;;;;;7.40;5.60;;;;;;;0.05;76.36;99733.71;103645;1303;24375;-80
2022/12/08 04:59:08;;;;;;;11.50;5.90;;;;;;;0.04;76.63;99734.39;103338;1303;23100;-78
2022/12/08 05:01:35;;;;;;;9.00;5.70;;;;;;;0.09;76.74;99733.78;103873;1303;22591;-82
2022/12/08 05:04:01;;;;;;;7.60;6.60;;;;;;;0.08;76.39;99740.00;103739;1302;24230;-80
2022/12/08 05:06:27;;;;;;;7.70;5.90;;;;;;;0.03;76.43;99745.28;103828;1303;24266;-79
2022/12/08 05:08:54;;;;;;;8.90;5.90;;;;;;;-0.01;76.55;99749.66;103436;1303;23870;-82
2022/12/08 05:11:20;;;;;;;7.20;5.90;;;;;;;-0.02;76.58;99750.52;103737;1303;24699;-80
2022/12/08 05:13:46;;;;;;;7.80;6.00;;;;;;;-0.02;76.68;99750.70;103715;1303;22467;-80
2022/12/08 05:16:14;;;;;;;9.40;6.40;;;;;;;0.03;77.00;99760.66;103928;1303;24351;-76
2022/12/08 05:18:41;;;;;;;9.60;6.30;;;;;;;0.08;76.89;99760.42;103775;1289;22466;-80
2022/12/08 05:21:09;;;;;;;10.00;6.80;;;;;;;0.08;76.63;99764.77;103838;1301;24242;-75
2022/12/08 05:23:35;;;;;;;7.30;5.40;;;;;;;0.08;76.60;99760.09;103514;1307;22633;-79
2022/12/08 05:26:02;;;;;;;11.10;6.20;;;;;;;0.08;76.49;99762.68;103527;1307;22544;-76
2022/12/08 05:28:28;;;;;;;9.40;6.30;;;;;;;0.08;76.60;99757.85;103195;1309;22498;-77
2022/12/08 05:31:14;;;;;;;6.90;6.20;;;;;;;0.13;76.75;99759.86;103355;1309;22556;-76
2022/12/08 05:33:42;;;;;;;9.40;6.90;;;;;;;0.17;76.49;99758.05;103161;1309;22741;-76
2022/12/08 05:36:10;;;;;;;10.50;6.50;;;;;;;0.13;76.21;99756.21;103189;1309;23897;-76
2022/12/08 05:38:36;;;;;;;8.60;5.30;;;;;;;0.07;76.27;99759.38;103335;1308;24249;-76
2022/12/08 05:41:05;;;;;;;10.90;6.70;;;;;;;0.07;76.46;99756.45;103384;1306;22728;-77
2022/12/08 05:43:31;;;;;;;8.40;6.30;;;;;;;0.09;76.73;99758.40;103483;1303;25858;-77
2022/12/08 05:45:57;;;;;;;8.30;6.20;;;;;;;0.14;76.57;99758.33;103649;1303;22470;-88
2022/12/08 05:48:23;;;;;;;9.10;6.30;;;;;;;0.10;76.28;99754.59;103698;1303;25278;-77
2022/12/08 05:50:51;;;;;;;10.50;5.80;;;;;;;0.07;76.52;99757.98;103642;1303;24245;-79
2022/12/08 05:53:19;;;;;;;9.70;6.20;;;;;;;0.08;76.64;99759.23;103753;1294;22470;-81
2022/12/08 05:55:46;;;;;;;9.90;6.50;;;;;;;0.06;76.27;99759.70;103893;1303;25370;-80
2022/12/08 05:58:15;;;;;;;8.10;6.30;;;;;;;-0.01;76.26;99761.62;104386;1303;23923;-82
2022/12/08 06:00:42;;;;;;;11.70;6.00;;;;;;;-0.09;76.32;99767.12;104734;1303;24346;-79
2022/12/08 06:03:10;;;;;;;8.50;6.60;;;;;;;-0.14;76.47;99772.23;104481;1304;23869;-82
2022/12/08 06:05:36;;;;;;;10.80;7.10;;;;;;;-0.17;76.62;99781.48;104382;1302;24515;-81
2022/12/08 06:08:03;;;;;;;11.50;7.50;;;;;;;-0.16;76.63;99786.88;104105;1295;22415;-80
2022/12/08 06:10:29;;;;;;;11.30;7.20;;;;;;;-0.18;76.50;99791.50;104187;1303;25220;-80
2022/12/08 06:12:56;;;;;;;11.50;6.30;;;;;;;-0.18;76.62;99805.86;104047;1304;22541;-79
2022/12/08 06:15:22;;;;;;;9.60;6.80;;;;;;;-0.17;76.55;99805.20;104647;1302;22485;-79
2022/12/08 06:17:48;;;;;;;12.60;7.00;;;;;;;-0.15;76.68;99809.42;104318;1303;23890;-79
2022/12/08 06:20:15;;;;;;;9.10;7.00;;;;;;;-0.10;76.67;99807.09;104703;1295;24397;-82
2022/12/08 06:22:41;;;;;;;10.90;7.40;;;;;;;-0.13;76.52;99814.31;104070;1303;22570;-80
2022/12/08 06:25:09;;;;;;;9.60;7.00;;;;;;;-0.11;76.69;99821.27;104541;1303;22470;-82
2022/12/08 06:27:36;;;;;;;10.70;7.90;;;;;;;-0.08;76.73;99822.38;104188;1303;22477;-81
2022/12/08 06:30:04;;;;;;;13.90;7.30;;;;;;;-0.05;76.67;99822.80;104030;1303;24338;-86
2022/12/08 06:32:30;;;;;;;9.40;7.10;;;;;;;-0.01;76.79;99816.67;103861;1303;22462;-83
2022/12/08 06:34:56;;;;;;;8.30;6.80;;;;;;;0.05;76.69;99817.34;103683;1297;22466;-83
2022/12/08 06:37:22;;;;;;;10.20;7.20;;;;;;;0.07;76.51;99822.06;103610;1304;25504;-81
2022/12/08 06:39:49;;;;;;;9.50;7.40;;;;;;;0.08;76.55;99821.22;103315;1306;25314;-80
2022/12/08 06:45:00;;;;;;;11.00;7.30;;;;;;;0.17;76.62;99818.50;103297;1304;22461;-83
2022/12/08 06:47:26;;;;;;;10.40;7.00;;;;;;;0.22;76.46;99821.02;103022;1310;22625;-79
2022/12/08 06:49:52;;;;;;;9.50;7.60;;;;;;;0.21;76.05;99824.30;103050;1310;23865;-80
2022/12/08 06:52:18;;;;;;;9.90;7.00;;;;;;;0.19;75.85;99827.89;102861;1314;25204;-79
2022/12/08 06:54:44;;;;;;;14.10;8.30;;;;;;;0.15;75.79;99831.94;102913;1307;23253;-79
2022/12/08 06:57:10;;;;;;;11.10;7.10;;;;;;;0.15;75.87;99834.17;103224;1308;25203;-79
2022/12/08 06:59:38;;;;;;;12.90;7.40;;;;;;;0.12;75.82;99831.17;103272;1307;22589;-79
2022/12/08 07:02:04;;;;;;;12.30;6.70;;;;;;;0.11;75.80;99840.34;103192;1307;24261;-80
2022/12/08 07:04:31;;;;;;;12.70;7.60;;;;;;;0.12;75.87;99840.02;103187;1307;22620;-79
2022/12/08 07:06:57;;;;;;;8.50;5.90;;;;;;;0.16;75.88;99838.20;103648;1303;24886;-79
2022/12/08 07:09:23;;;;;;;11.10;7.40;;;;;;;0.17;75.54;99836.31;103102;1309;24538;-80
2022/12/08 07:11:49;;;;;;;11.40;6.90;;;;;;;0.15;75.63;99834.18;103077;1309;22460;-80
2022/12/08 07:14:15;;;;;;;9.30;6.40;;;;;;;0.18;75.98;99839.31;103052;1309;24374;-79
2022/12/08 07:16:41;;;;;;;11.20;7.10;;;;;;;0.18;75.50;99839.30;103024;1309;24414;-79
2022/12/08 07:19:08;;;;;;;13.10;6.90;;;;;;;0.17;75.57;99841.52;103034;1309;25256;-79
2022/12/08 07:21:34;;;;;;;10.50;6.30;;;;;;;0.19;75.62;99842.94;102996;1309;22924;-81
2022/12/08 07:24:00;;;;;;;9.20;6.70;;;;;;;0.22;75.65;99840.08;103106;1309;24516;-80
2022/12/08 07:26:26;;;;;;;10.60;7.40;;;;;;;0.21;75.35;99851.48;102886;1309;25519;-81
2022/12/08 07:28:53;;;;;;;13.10;7.00;;;;;;;0.19;75.32;99860.09;103478;1303;22464;-83
2022/12/08 07:31:22;;;;;;;10.70;7.10;;;;;;;0.16;75.19;99864.71;103596;1303;22517;-81
2022/12/08 07:33:49;;;;;;;12.20;6.90;;;;;;;0.17;75.38;99864.89;103622;1303;22492;-82
2022/12/08 07:36:15;;;;;;;13.40;7.30;;;;;;;0.21;75.60;99863.08;103628;1303;22679;-79
2022/12/08 07:38:43;;;;;;;8.00;6.50;;;;;;;0.26;75.59;99862.35;103635;1296;22644;-80
2022/12/08 07:41:17;;;;;;;13.90;7.40;;;;;;;0.31;75.47;99862.63;103528;1303;22466;-80
2022/12/08 07:43:44;;;;;;;17.00;7.20;;;;;;;0.35;75.35;99859.77;103347;1304;22505;-81
2022/12/08 07:46:16;;;;;;;11.50;7.80;;;;;;;0.34;75.27;99856.63;103261;1303;26593;-80
2022/12/08 07:48:43;;;;;;;9.50;6.40;;;;;;;0.37;75.46;99860.86;103592;1303;23135;-79
2022/12/08 07:51:12;;;;;;;12.40;7.70;;;;;;;0.43;75.49;99860.14;103495;1289;25327;-80
2022/12/08 07:53:40;;;;;;;11.40;7.70;;;;;;;0.43;75.15;99866.23;103651;1303;25251;-79
2022/12/08 07:56:11;;;;;;;12.10;7.20;;;;;;;0.44;75.14;99864.15;103637;1299;23749;-80
2022/12/08 07:58:38;;;;;;;13.60;7.50;;;;;;;0.41;75.06;99867.35;103617;1302;22515;-81
2022/12/08 08:01:05;;;;;;;12.70;8.00;;;;;;;0.39;75.34;99864.90;103542;1303;25462;-81
2022/12/08 08:03:32;;;;;;;12.20;6.40;;;;;;;0.46;75.56;99865.41;103750;1296;22465;-80
2022/12/08 08:06:04;;;;;;;12.50;7.90;;;;;;;0.51;75.32;99865.35;103450;1303;25300;-79
2022/12/08 08:08:30;;;;;;;12.90;7.80;;;;;;;0.62;75.64;99867.50;103462;1303;24333;-80
2022/12/08 08:10:57;;;;;;;10.40;6.60;;;;;;;0.73;75.43;99863.42;103473;1303;26670;-79
2022/12/08 08:13:23;;;;;;;12.00;8.30;;;;;;;0.76;74.95;99861.58;103620;1303;24380;-81
2022/12/08 08:15:49;;;;;;;11.80;7.40;;;;;;;0.77;74.55;99864.89;103654;1303;22745;-81
2022/12/08 08:18:16;;;;;;;10.80;7.00;;;;;;;0.77;74.59;99869.73;103677;1303;24360;-81
2022/12/08 08:20:42;;;;;;;12.20;7.60;;;;;;;0.80;74.61;99867.92;103573;1302;22598;-80
2022/12/08 08:23:08;;;;;;;9.10;6.60;;;;;;;0.86;74.72;99872.04;103562;1303;24026;-82
2022/12/08 08:25:34;;;;;;;12.60;7.70;;;;;;;0.97;74.37;99874.53;103706;1302;24244;-81
2022/12/08 08:28:00;;;;;;;11.80;7.40;;;;;;;0.92;73.68;99872.52;103749;1303;24251;-80
2022/12/08 08:30:27;;;;;;;13.40;7.80;;;;;;;0.88;73.66;99879.16;103919;1303;22412;-81
2022/12/08 08:32:53;;;;;;;10.50;7.60;;;;;;;0.86;73.58;99883.83;104024;1303;22716;-81
2022/12/08 08:35:19;;;;;;;11.00;6.80;;;;;;;0.91;73.93;99884.98;104036;1297;22537;-79
2022/12/08 08:37:45;;;;;;;11.50;7.10;;;;;;;0.99;73.73;99886.53;103726;1303;25202;-81
2022/12/08 08:40:17;;;;;;;10.80;7.70;;;;;;;0.98;73.25;99888.08;103835;1303;25910;-81
2022/12/08 08:42:43;;;;;;;12.90;7.00;;;;;;;1.03;73.33;99884.19;103684;1303;22474;-82
2022/12/08 08:45:13;;;;;;;14.70;7.10;;;;;;;1.13;73.20;99879.55;103590;1303;24948;-82
2022/12/08 08:47:39;;;;;;;10.70;7.80;;;;;;;1.17;72.95;99881.02;103831;1303;22466;-80
2022/12/08 08:50:06;;;;;;;13.10;8.00;;;;;;;1.21;72.88;99880.56;103493;1303;23196;-80
2022/12/08 08:52:32;;;;;;;14.40;8.50;;;;;;;1.29;73.05;99879.52;103520;1303;22462;-81
2022/12/08 08:54:58;;;;;;;12.80;7.90;;;;;;;1.44;73.16;99880.49;103403;1303;22485;-82
2022/12/08 08:57:25;;;;;;;12.40;8.70;;;;;;;1.59;72.68;99884.98;103464;1303;22491;-81
2022/12/08 08:59:52;;;;;;;11.80;7.70;;;;;;;1.61;71.89;99884.65;103752;1303;22503;-81
2022/12/08 09:02:19;;;;;;;11.10;7.50;;;;;;;1.68;71.97;99890.35;103687;1303;22505;-82
2022/12/08 09:04:46;;;;;;;12.20;8.70;;;;;;;1.73;71.65;99889.06;103589;1303;22508;-82
2022/12/08 09:07:13;;;;;;;14.70;8.10;;;;;;;1.85;72.30;99888.73;103845;1303;22487;-83
2022/12/08 09:09:40;;;;;;;15.60;9.60;;;;;;;1.99;72.26;99892.81;103901;1302;24173;-80
2022/12/08 09:12:07;;;;;;;14.00;8.50;;;;;;;2.04;71.75;99894.12;103755;1303;24205;-81
2022/12/08 09:14:34;;;;;;;13.80;9.50;;;;;;;2.09;71.26;99896.64;103520;1303;22468;-81
2022/12/08 09:17:00;;;;;;;12.70;8.40;;;;;;;2.01;70.74;99890.41;103479;1303;24252;-81
2022/12/08 09:19:27;;;;;;;13.30;8.20;;;;;;;2.09;71.34;99895.06;103735;1303;23248;-80
2022/12/08 09:21:53;;;;;;;11.10;8.00;;;;;;;2.22;71.20;99892.70;103720;1303;22477;-81
2022/12/08 09:24:19;;;;;;;12.70;7.90;;;;;;;2.26;70.76;99891.88;103494;1303;25560;-81
2022/12/08 09:26:46;;;;;;;11.00;7.40;;;;;;;2.37;71.21;99884.42;103545;1303;25272;-80
2022/12/08 09:29:13;;;;;;;10.80;6.90;;;;;;;2.52;70.57;99881.17;103688;1303;24293;-83
2022/12/08 09:31:40;;;;;;;11.30;7.60;;;;;;;2.59;70.15;99880.24;103712;1302;22517;-82
2022/12/08 09:34:06;;;;;;;11.70;8.10;;;;;;;2.69;70.30;99876.91;103565;1303;22473;-81
2022/12/08 09:36:32;;;;;;;10.30;6.90;;;;;;;2.71;69.46;99883.55;103794;1303;22562;-80
2022/12/08 09:38:58;;;;;;;9.40;7.00;;;;;;;2.54;69.19;99878.95;103540;1303;22459;-79
2022/12/08 09:41:34;;;;;;;13.20;8.10;;;;;;;2.51;69.55;99875.77;103675;1303;23690;-82
2022/12/08 09:44:47;;;;;;;15.40;8.40;;;;;;;2.67;69.93;99868.73;103590;1298;22474;-81
2022/12/08 09:47:25;;;;;;;10.90;7.80;;;;;;;2.78;69.36;99866.44;103598;1303;26495;-80
2022/12/08 09:50:10;;;;;;;9.00;7.50;;;;;;;2.88;69.55;99869.88;103540;1303;22406;-82
2022/12/08 09:52:42;;;;;;;13.40;8.30;;;;;;;2.92;69.05;99865.77;103442;1303;24033;-82
2022/12/08 09:55:19;;;;;;;12.10;8.00;;;;;;;2.83;69.32;99861.12;103589;1303;24312;-81
2022/12/08 09:57:56;;;;;;;12.30;8.80;;;;;;;2.98;69.96;99859.40;103645;1303;22459;-80
2022/12/08 10:00:23;;;;;;;10.20;8.70;;;;;;;3.11;69.91;99856.61;103440;1304;23842;-83
2022/12/08 10:02:50;;;;;;;13.50;9.80;;;;;;;3.18;69.46;99857.92;103607;1303;23685;-81
2022/12/08 10:05:16;;;;;;;11.70;9.10;;;;;;;3.13;69.26;99861.33;103639;1304;22468;-80
2022/12/08 10:08:11;;;;;;;13.40;9.70;;;;;;;3.05;69.15;99858.10;103647;1303;22721;-80
2022/12/08 10:10:46;;;;;;;12.30;9.20;;;;;;;2.99;69.47;99858.55;103799;1303;22480;-81
2022/12/08 10:13:26;;;;;;;12.20;8.90;;;;;;;3.03;69.61;99856.84;103106;1310;22544;-80
2022/12/08 10:16:23;;;;;;;13.60;9.80;;;;;;;2.96;69.51;99853.63;103076;1313;24011;-82
2022/12/08 10:19:24;;;;;;;12.20;9.90;;;;;;;2.94;69.88;99852.73;103167;1310;22530;-82
2022/12/08 10:21:52;;;;;;;18.40;10.50;;;;;;;3.07;70.28;99851.00;102990;1309;24254;-81
2022/12/08 10:24:39;;;;;;;13.60;10.40;;;;;;;3.24;70.19;99843.70;102493;1315;24428;-80
2022/12/08 10:27:11;;;;;;;11.60;10.30;;;;;;;3.17;69.53;99842.23;101987;1320;23370;-82
2022/12/08 10:29:39;;;;;;;11.80;10.30;;;;;;;3.10;69.72;99837.63;102120;1320;22536;-82
2022/12/08 10:32:20;;;;;;;17.50;10.80;;;;;;;3.03;69.95;99837.54;102538;1313;24358;-81
2022/12/08 10:35:09;;;;;;;19.20;11.40;;;;;;;3.04;70.05;99833.90;102788;1313;22477;-82
2022/12/08 10:37:36;;;;;;;15.80;10.80;;;;;;;3.03;70.13;99832.16;102535;1314;22529;-82
2022/12/08 10:40:05;;;;;;;15.20;11.20;;;;;;;2.97;70.06;99832.41;102864;1313;25378;-81
2022/12/08 10:42:36;;;;;;;18.70;11.30;;;;;;;3.08;70.65;99834.82;103285;1307;22778;-82
2022/12/08 10:45:08;;;;;;;17.40;10.80;;;;;;;3.18;70.65;99831.98;103332;1303;23896;-80
2022/12/08 10:47:40;;;;;;;13.40;10.40;;;;;;;3.23;70.52;99828.40;103511;1302;22489;-81
2022/12/08 10:50:27;;;;;;;17.90;12.30;;;;;;;3.22;70.57;99824.03;103475;1303;25263;-80
2022/12/08 10:52:58;;;;;;;17.40;11.50;;;;;;;3.35;70.99;99823.30;103439;1294;25629;-81
2022/12/08 10:55:25;;;;;;;14.20;11.40;;;;;;;3.39;70.26;99821.44;103487;1305;22877;-82
2022/12/08 10:57:51;;;;;;;15.50;12.60;;;;;;;3.31;70.21;99818.92;103473;1303;24404;-80
2022/12/08 11:00:25;;;;;;;17.00;13.10;;;;;;;3.31;70.33;99815.44;103688;1299;22505;-81
2022/12/08 11:03:03;;;;;;;17.20;11.90;;;;;;;3.27;70.65;99819.21;103522;1304;22542;-81
2022/12/08 11:05:35;;;;;;;13.50;11.80;;;;;;;3.16;70.36;99815.43;103800;1303;22469;-81
2022/12/08 11:08:03;;;;;;;17.10;12.50;;;;;;;3.10;70.78;99814.84;104130;1280;22495;-81
2022/12/08 11:10:43;;;;;;;11.30;10.20;;;;;;;3.13;71.08;99815.57;104329;1301;22441;-80
2022/12/08 11:13:19;;;;;;;15.30;12.00;;;;;;;3.05;70.72;99819.47;104044;1303;22441;-81
2022/12/08 11:15:46;;;;;;;16.20;12.50;;;;;;;2.95;70.97;99809.43;104147;1303;22460;-80
2022/12/08 11:18:28;;;;;;;16.20;12.90;;;;;;;2.93;71.56;99806.29;103944;1303;24245;-81
2022/12/08 11:20:58;;;;;;;16.20;12.30;;;;;;;3.03;71.87;99801.89;104132;1303;24183;-80
2022/12/08 11:23:29;;;;;;;18.30;13.50;;;;;;;3.11;72.00;99803.36;104579;1303;25267;-82
2022/12/08 11:26:02;;;;;;;15.70;12.80;;;;;;;3.13;71.72;99799.56;104125;1305;22482;-80
2022/12/08 11:28:28;;;;;;;18.30;14.00;;;;;;;3.11;71.64;99791.19;104163;1303;25262;-81
2022/12/08 11:31:01;;;;;;;16.90;14.50;;;;;;;3.16;71.84;99785.33;103931;1304;22459;-81
2022/12/08 11:33:28;;;;;;;17.40;13.90;;;;;;;3.19;71.98;99789.54;103843;1303;22463;-81
2022/12/08 11:36:11;;;;;;;18.10;12.60;;;;;;;3.25;72.06;99785.44;103016;1312;24378;-82
2022/12/08 11:38:46;;;;;;;15.70;13.60;;;;;;;3.31;71.86;99786.90;103309;1309;22482;-81
2022/12/08 11:41:18;;;;;;;16.40;14.00;;;;;;;3.21;71.55;99786.61;103149;1309;24401;-83
2022/12/08 11:43:53;;;;;;;16.40;14.00;;;;;;;3.22;71.96;99782.63;103258;1309;24276;-82
2022/12/08 11:46:35;;;;;;;15.80;13.70;;;;;;;3.18;71.79;99780.65;103149;1309;22738;-80
2022/12/08 11:49:08;;;;;;;16.50;14.30;;;;;;;3.13;72.20;99781.81;103123;1309;22747;-81
2022/12/08 11:51:47;;;;;;;17.60;14.60;;;;;;;3.17;72.14;99775.77;103291;1309;24410;-81